createdAt,value
2019-05-21T00:00:04.445Z,10.50
2019-05-21T00:02:32.995Z,10.60
2019-05-21T00:05:01.451Z,10.33
2019-05-21T00:07:29.930Z,8.87
2019-05-21T00:09:58.402Z,10.17
2019-05-21T00:12:26.914Z,8.50
2019-05-21T00:14:55.369Z,8.27
2019-05-21T00:17:23.855Z,10.73
2019-05-21T00:19:52.335Z,8.73
2019-05-21T00:22:20.823Z,9.67
2019-05-21T00:24:49.383Z,9.60
2019-05-21T00:27:17.887Z,9.50
2019-05-21T00:30:22.451Z,11.73
2019-05-21T00:33:27.061Z,12.43
2019-05-21T00:36:33.078Z,12.40
2019-05-21T00:39:37.431Z,11.53
2019-05-21T00:42:05.228Z,11.47
2019-05-21T00:44:36.678Z,10.33
2019-05-21T00:47:07.090Z,10.83
2019-05-21T00:49:35.614Z,9.83
2019-05-21T00:52:08.398Z,9.70
2019-05-21T00:54:34.933Z,8.77
2019-05-21T00:57:03.587Z,8.03
2019-05-21T00:59:32.049Z,9.93
2019-05-21T01:02:00.518Z,7.43
2019-05-21T01:04:28.992Z,8.13
2019-05-21T01:06:57.436Z,7.23
2019-05-21T01:09:25.894Z,7.67
2019-05-21T01:11:54.465Z,5.93
2019-05-21T01:14:22.957Z,5.63
2019-05-21T01:16:51.532Z,3.43
2019-05-21T01:19:20.015Z,4.30
2019-05-21T01:21:48.531Z,4.30
2019-05-21T01:24:16.995Z,5.83
2019-05-21T01:26:45.508Z,5.07
2019-05-21T01:29:13.963Z,4.67
2019-05-21T01:31:42.504Z,4.73
2019-05-21T01:34:11.733Z,4.60
2019-05-21T01:36:40.332Z,4.33
2019-05-21T01:39:08.787Z,3.87
2019-05-21T01:41:37.258Z,3.73
2019-05-21T01:44:05.800Z,3.70
2019-05-21T01:46:34.282Z,3.80
2019-05-21T01:49:02.732Z,2.70
2019-05-21T01:51:31.254Z,3.47
2019-05-21T01:53:59.706Z,3.50
2019-05-21T01:56:28.185Z,2.83
2019-05-21T01:58:56.620Z,2.73
2019-05-21T02:01:25.103Z,1.90
2019-05-21T02:03:53.650Z,1.70
2019-05-21T02:06:22.676Z,2.30
2019-05-21T02:08:51.156Z,2.67
2019-05-21T02:11:19.606Z,2.07
2019-05-21T02:13:48.071Z,1.63
2019-05-21T02:16:16.566Z,1.83
2019-05-21T02:18:45.003Z,1.50
2019-05-21T02:21:13.512Z,1.20
2019-05-21T02:23:41.966Z,1.37
2019-05-21T02:26:10.432Z,1.20
2019-05-21T02:28:38.897Z,1.90
2019-05-21T02:31:07.356Z,1.73
2019-05-21T02:33:35.885Z,1.57
2019-05-21T02:36:04.484Z,1.63
2019-05-21T02:38:32.981Z,1.23
2019-05-21T02:41:01.581Z,1.30
2019-05-21T02:43:30.172Z,1.30
2019-05-21T02:45:58.615Z,2.00
2019-05-21T02:48:27.046Z,2.43
2019-05-21T02:50:55.501Z,2.97
2019-05-21T02:53:24.015Z,2.80
2019-05-21T02:55:52.495Z,2.43
2019-05-21T02:58:21.002Z,2.67
2019-05-21T03:01:03.297Z,2.70
2019-05-21T03:03:33.785Z,1.80
2019-05-21T03:06:12.947Z,1.43
2019-05-21T03:08:33.216Z,1.17
2019-05-21T03:11:01.688Z,1.10
2019-05-21T03:13:30.158Z,2.00
2019-05-21T03:15:58.766Z,1.80
2019-05-21T03:18:27.214Z,1.80
2019-05-21T03:20:55.787Z,2.27
2019-05-21T03:23:24.322Z,2.47
2019-05-21T03:25:52.867Z,2.10
2019-05-21T03:28:21.384Z,2.07
2019-05-21T03:30:50.013Z,1.80
2019-05-21T03:33:18.616Z,2.27
2019-05-21T03:35:47.063Z,2.37
2019-05-21T03:38:15.617Z,2.30
2019-05-21T03:40:44.104Z,2.50
2019-05-21T03:43:12.620Z,3.03
2019-05-21T03:45:41.058Z,3.77
2019-05-21T03:48:09.546Z,5.20
2019-05-21T03:50:38.060Z,5.70
2019-05-21T03:53:06.532Z,5.43
2019-05-21T03:55:35.074Z,7.40
2019-05-21T03:58:03.664Z,10.57
2019-05-21T04:00:32.115Z,10.77
2019-05-21T04:03:00.626Z,9.83
2019-05-21T04:05:29.096Z,8.50
2019-05-21T04:07:57.551Z,9.03
2019-05-21T04:10:26.085Z,8.07
2019-05-21T04:13:02.153Z,6.73
2019-05-21T04:15:30.733Z,6.30
2019-05-21T04:18:00.915Z,5.00
2019-05-21T04:20:29.453Z,6.80
2019-05-21T04:22:57.990Z,6.17
2019-05-21T04:25:26.495Z,5.90
2019-05-21T04:27:54.935Z,5.67
2019-05-21T04:30:23.403Z,5.43
2019-05-21T04:32:51.849Z,4.30
2019-05-21T04:35:20.368Z,4.77
2019-05-21T04:37:48.848Z,4.80
2019-05-21T04:40:17.591Z,3.83
2019-05-21T04:42:46.075Z,4.00
2019-05-21T04:45:14.788Z,3.80
2019-05-21T04:47:43.236Z,5.10
2019-05-21T04:50:11.762Z,4.10
2019-05-21T04:52:40.255Z,5.07
2019-05-21T04:55:09.023Z,3.70
2019-05-21T04:57:37.550Z,4.30
2019-05-21T05:00:06.769Z,4.73
2019-05-21T05:02:35.303Z,3.00
2019-05-21T05:05:04.942Z,3.10
2019-05-21T05:07:33.443Z,3.30
2019-05-21T05:10:01.918Z,3.30
2019-05-21T05:12:30.381Z,3.60
2019-05-21T05:14:58.853Z,2.03
2019-05-21T05:17:27.309Z,1.90
2019-05-21T05:19:55.824Z,2.33
2019-05-21T05:22:24.389Z,2.33
2019-05-21T05:24:52.964Z,2.20
2019-05-21T05:27:21.483Z,2.83
2019-05-21T05:29:50.075Z,2.63
2019-05-21T05:32:18.654Z,2.80
2019-05-21T05:34:47.217Z,1.90
2019-05-21T05:37:15.834Z,2.57
2019-05-21T05:39:44.334Z,2.10
2019-05-21T05:42:12.827Z,2.30
2019-05-21T05:44:41.271Z,1.43
2019-05-21T05:47:09.813Z,1.13
2019-05-21T05:49:39.983Z,1.40
2019-05-21T05:52:08.495Z,1.30
2019-05-21T05:54:36.945Z,1.63
2019-05-21T05:57:05.491Z,6.17
2019-05-21T05:59:33.964Z,1.13
2019-05-21T06:02:02.476Z,1.50
2019-05-21T06:04:30.923Z,1.73
2019-05-21T06:06:59.377Z,1.80
2019-05-21T06:09:28.703Z,3.50
2019-05-21T06:11:57.198Z,4.13
2019-05-21T06:14:25.708Z,5.30
2019-05-21T06:16:54.200Z,4.50
2019-05-21T06:19:22.702Z,5.17
2019-05-21T06:21:51.517Z,7.30
2019-05-21T06:24:19.987Z,8.43
2019-05-21T06:26:48.425Z,8.73
2019-05-21T06:29:16.955Z,9.20
2019-05-21T06:31:45.394Z,9.27
2019-05-21T06:34:13.887Z,9.23
2019-05-21T06:36:42.347Z,10.70
2019-05-21T06:39:10.808Z,11.47
2019-05-21T06:41:39.399Z,9.83
2019-05-21T06:44:08.014Z,9.33
2019-05-21T06:46:36.566Z,10.23
2019-05-21T06:49:05.203Z,10.37
2019-05-21T06:51:33.677Z,9.00
2019-05-21T06:54:02.378Z,9.57
2019-05-21T06:56:31.272Z,10.30
2019-05-21T06:58:59.824Z,11.07
2019-05-21T07:01:29.644Z,9.60
2019-05-21T07:03:58.503Z,11.90
2019-05-21T07:06:26.979Z,12.87
2019-05-21T07:08:55.448Z,14.47
2019-05-21T07:11:24.187Z,17.30
2019-05-21T07:13:52.916Z,16.40
2019-05-21T07:16:21.729Z,15.80
2019-05-21T07:18:50.285Z,13.77
2019-05-21T07:21:18.867Z,16.00
2019-05-21T07:23:47.364Z,14.40
2019-05-21T07:26:15.921Z,12.83
2019-05-21T07:28:44.436Z,13.40
2019-05-21T07:31:17.092Z,13.27
2019-05-21T07:33:43.163Z,14.93
2019-05-21T07:36:11.686Z,14.30
2019-05-21T07:38:52.798Z,15.00
2019-05-21T07:41:10.834Z,17.03
2019-05-21T07:43:39.402Z,17.53
2019-05-21T07:46:07.965Z,16.30
2019-05-21T07:48:37.291Z,20.20
2019-05-21T07:51:05.853Z,18.23
2019-05-21T07:53:34.363Z,17.70
2019-05-21T07:56:03.250Z,17.83
2019-05-21T07:58:31.807Z,17.60
2019-05-21T08:01:01.589Z,16.90
2019-05-21T08:03:30.387Z,16.63
2019-05-21T08:05:58.916Z,16.93
2019-05-21T08:08:27.672Z,23.47
2019-05-21T08:10:56.127Z,25.30
2019-05-21T08:13:24.599Z,21.87
2019-05-21T08:15:53.046Z,24.27
2019-05-21T08:18:21.531Z,26.73
2019-05-21T08:20:49.998Z,26.27
2019-05-21T08:23:18.582Z,24.07
2019-05-21T08:25:47.128Z,22.77
2019-05-21T08:28:15.668Z,20.43
2019-05-21T08:30:44.147Z,19.67
2019-05-21T08:33:12.586Z,20.10
2019-05-21T08:35:41.071Z,22.20
2019-05-21T08:38:09.538Z,20.20
2019-05-21T08:40:38.095Z,20.67
2019-05-21T08:43:06.654Z,21.20
2019-05-21T08:45:35.169Z,24.17
2019-05-21T08:48:03.649Z,23.20
2019-05-21T08:50:32.195Z,24.47
2019-05-21T08:53:00.646Z,22.10
2019-05-21T08:55:29.170Z,21.50
2019-05-21T08:58:06.985Z,22.20
2019-05-21T09:00:28.054Z,19.50
2019-05-21T09:02:56.526Z,19.97
2019-05-21T09:05:24.994Z,17.63
2019-05-21T09:07:54.218Z,15.70
2019-05-21T09:10:22.783Z,17.30
2019-05-21T09:12:51.267Z,16.03
2019-05-21T09:15:21.498Z,17.60
2019-05-21T09:17:50.053Z,18.97
2019-05-21T09:20:19.214Z,21.00
2019-05-21T09:22:48.622Z,25.30
2019-05-21T09:25:17.627Z,24.70
2019-05-21T09:27:46.703Z,23.70
2019-05-21T09:30:16.594Z,24.90
2019-05-21T09:32:45.059Z,23.27
2019-05-21T09:35:15.132Z,22.57
2019-05-21T09:37:43.907Z,24.17
2019-05-21T09:40:13.498Z,21.90
2019-05-21T09:42:45.177Z,20.30
2019-05-21T09:45:13.169Z,19.67
2019-05-21T09:47:41.723Z,18.47
2019-05-21T09:50:10.718Z,17.80
2019-05-21T09:52:39.392Z,15.60
2019-05-21T09:55:08.399Z,15.33
2019-05-21T09:57:38.520Z,16.20
2019-05-21T10:00:21.687Z,15.63
2019-05-21T10:02:50.381Z,14.73
2019-05-21T10:05:18.914Z,16.93
2019-05-21T10:07:47.372Z,15.33
2019-05-21T10:10:15.840Z,14.13
2019-05-21T10:12:44.296Z,14.90
2019-05-21T10:15:13.107Z,13.53
2019-05-21T10:17:41.589Z,13.90
2019-05-21T10:20:10.410Z,13.17
2019-05-21T10:22:38.884Z,13.43
2019-05-21T10:25:07.369Z,13.87
2019-05-21T10:27:35.990Z,13.63
2019-05-21T10:30:05.846Z,13.37
2019-05-21T10:32:34.334Z,13.33
2019-05-21T10:35:03.869Z,11.80
2019-05-21T10:37:32.790Z,14.53
2019-05-21T10:40:01.548Z,12.87
2019-05-21T10:42:30.288Z,12.33
2019-05-21T10:44:59.688Z,11.23
2019-05-21T10:47:28.256Z,12.50
2019-05-21T10:49:56.716Z,13.43
2019-05-21T10:52:25.496Z,15.30
2019-05-21T10:54:54.043Z,13.93
2019-05-21T10:57:22.666Z,12.57
2019-05-21T10:59:51.270Z,13.03
2019-05-21T11:02:24.424Z,12.00
2019-05-21T11:05:12.382Z,11.60
2019-05-21T11:07:40.979Z,12.60
2019-05-21T11:10:11.409Z,10.93
2019-05-21T11:12:39.968Z,11.27
2019-05-21T11:15:08.854Z,10.37
2019-05-21T11:17:49.958Z,9.43
2019-05-21T11:20:07.913Z,9.80
2019-05-21T11:22:36.468Z,10.60
2019-05-21T11:25:06.252Z,11.40
2019-05-21T11:27:34.977Z,11.00
2019-05-21T11:30:05.103Z,10.80
2019-05-21T11:32:33.622Z,10.60
2019-05-21T11:35:02.248Z,10.50
2019-05-21T11:37:30.765Z,10.57
2019-05-21T11:39:59.223Z,9.97
2019-05-21T11:42:27.675Z,10.13
2019-05-21T11:44:56.736Z,9.63
2019-05-21T11:47:25.355Z,11.10
2019-05-21T11:49:54.176Z,10.63
2019-05-21T11:52:22.743Z,9.43
2019-05-21T11:54:51.298Z,9.40
2019-05-21T11:57:19.904Z,11.23
2019-05-21T11:59:48.362Z,10.13
2019-05-21T12:02:16.833Z,9.93
2019-05-21T12:04:45.457Z,9.43
2019-05-21T12:07:13.992Z,10.53
2019-05-21T12:09:42.463Z,12.10
2019-05-21T12:12:10.925Z,11.00
2019-05-21T12:14:39.483Z,15.47
2019-05-21T12:17:08.024Z,13.90
2019-05-21T12:19:36.595Z,11.00
2019-05-21T12:22:05.185Z,13.43
2019-05-21T12:24:33.711Z,13.60
2019-05-21T12:27:02.180Z,18.37
2019-05-21T12:29:34.060Z,17.97
2019-05-21T12:32:02.093Z,15.10
2019-05-21T12:34:30.567Z,15.27
2019-05-21T12:36:59.070Z,13.83
2019-05-21T12:39:27.600Z,12.13
2019-05-21T12:41:56.264Z,14.10
2019-05-21T12:44:25.790Z,14.30
2019-05-21T12:46:54.524Z,14.90
2019-05-21T12:49:23.039Z,15.60
2019-05-21T12:51:51.531Z,14.60
2019-05-21T12:54:20.074Z,14.10
2019-05-21T12:56:48.554Z,16.97
2019-05-21T12:59:17.066Z,18.83
2019-05-21T13:01:45.564Z,17.37
2019-05-21T13:04:14.085Z,17.50
2019-05-21T13:06:42.605Z,17.57
2019-05-21T13:09:11.189Z,19.80
2019-05-21T13:11:39.740Z,20.50
2019-05-21T13:14:08.279Z,22.13
2019-05-21T13:16:36.753Z,23.30
2019-05-21T13:19:05.332Z,23.20
2019-05-21T13:21:34.140Z,20.97
2019-05-21T13:24:02.688Z,26.13
2019-05-21T13:26:31.207Z,25.53
2019-05-21T13:28:59.687Z,24.50
2019-05-21T13:31:28.153Z,21.77
2019-05-21T13:33:56.845Z,24.67
2019-05-21T13:36:25.359Z,25.43
2019-05-21T13:38:53.917Z,31.60
2019-05-21T13:41:23.665Z,26.13
2019-05-21T13:43:52.212Z,26.50
2019-05-21T13:46:20.668Z,27.13
2019-05-21T13:48:49.169Z,28.03
2019-05-21T13:51:17.964Z,27.00
2019-05-21T13:53:46.445Z,26.93
2019-05-21T13:56:14.957Z,28.17
2019-05-21T13:58:43.469Z,26.17
2019-05-21T14:01:15.870Z,20.83
2019-05-21T14:03:43.706Z,17.80
2019-05-21T14:06:12.231Z,19.40
2019-05-21T14:08:41.022Z,17.33
2019-05-21T14:11:09.839Z,18.13
2019-05-21T14:13:38.442Z,17.13
2019-05-21T14:16:06.907Z,17.30
2019-05-21T14:18:35.359Z,22.43
2019-05-21T14:21:04.003Z,21.70
2019-05-21T14:23:32.539Z,24.60
2019-05-21T14:26:01.025Z,21.90
2019-05-21T14:28:29.547Z,25.60
2019-05-21T14:30:58.109Z,27.40
2019-05-21T14:33:26.580Z,24.50
2019-05-21T14:35:55.055Z,27.57
2019-05-21T14:38:23.561Z,27.80
2019-05-21T14:40:52.022Z,27.87
2019-05-21T14:43:20.496Z,27.47
2019-05-21T14:45:49.025Z,28.07
2019-05-21T14:48:17.703Z,24.80
2019-05-21T14:50:46.154Z,24.53
2019-05-21T14:53:14.650Z,23.77
2019-05-21T14:55:43.242Z,21.07
2019-05-21T14:58:11.754Z,23.50
2019-05-21T15:00:40.364Z,22.90
2019-05-21T15:03:23.913Z,22.83
2019-05-21T15:05:39.075Z,23.00
2019-05-21T15:08:07.598Z,22.07
2019-05-21T15:10:47.809Z,24.50
2019-05-21T15:13:06.745Z,24.37
2019-05-21T15:15:35.728Z,25.10
2019-05-21T15:18:04.786Z,25.87
2019-05-21T15:20:34.951Z,26.50
2019-05-21T15:23:03.567Z,27.67
2019-05-21T15:25:32.227Z,25.40
2019-05-21T15:28:00.716Z,24.03
2019-05-21T15:30:29.316Z,27.27
2019-05-21T15:32:57.811Z,27.90
2019-05-21T15:35:26.305Z,26.87
2019-05-21T15:37:54.860Z,25.20
2019-05-21T15:40:23.467Z,26.90
2019-05-21T15:42:53.545Z,28.13
2019-05-21T15:45:22.603Z,28.33
2019-05-21T15:47:51.125Z,30.17
2019-05-21T15:50:19.818Z,30.20
2019-05-21T15:52:48.318Z,27.93
2019-05-21T15:55:16.772Z,29.27
2019-05-21T15:57:45.247Z,31.13
2019-05-21T16:00:14.302Z,31.13
2019-05-21T16:02:42.764Z,29.73
2019-05-21T16:05:11.463Z,29.77
2019-05-21T16:07:39.930Z,34.33
2019-05-21T16:10:08.630Z,31.40
2019-05-21T16:12:37.112Z,30.90
2019-05-21T16:15:07.309Z,31.80
2019-05-21T16:17:35.776Z,30.87
2019-05-21T16:20:08.680Z,30.37
2019-05-21T16:22:37.262Z,29.53
2019-05-21T16:25:07.085Z,30.93
2019-05-21T16:27:35.546Z,32.77
2019-05-21T16:30:08.503Z,29.43
2019-05-21T16:32:37.712Z,29.30
2019-05-21T16:35:08.508Z,31.17
2019-05-21T16:37:37.212Z,31.73
2019-05-21T16:40:07.576Z,32.00
2019-05-21T16:42:36.143Z,31.20
2019-05-21T16:45:06.962Z,31.37
2019-05-21T16:47:45.977Z,30.90
2019-05-21T16:50:07.062Z,29.50
2019-05-21T16:52:35.629Z,30.47
2019-05-21T16:55:05.974Z,30.50
2019-05-21T16:57:34.604Z,29.57
2019-05-21T17:00:04.867Z,29.77
2019-05-21T17:02:34.394Z,30.83
2019-05-21T17:05:04.950Z,30.50
2019-05-21T17:07:33.421Z,33.63
2019-05-21T17:10:02.017Z,33.20
2019-05-21T17:12:30.538Z,32.00
2019-05-21T17:14:59.196Z,31.73
2019-05-21T17:17:27.770Z,31.17
2019-05-21T17:19:56.294Z,34.13
2019-05-21T17:22:24.798Z,34.20
2019-05-21T17:24:53.346Z,31.47
2019-05-21T17:27:21.806Z,33.43
2019-05-21T17:29:50.306Z,32.03
2019-05-21T17:32:18.783Z,32.70
2019-05-21T17:34:47.276Z,30.97
2019-05-21T17:37:15.847Z,29.37
2019-05-21T17:39:44.356Z,31.93
2019-05-21T17:42:15.428Z,31.10
2019-05-21T17:44:43.107Z,29.70
2019-05-21T17:47:11.679Z,34.47
2019-05-21T17:49:40.396Z,36.03
2019-05-21T17:52:08.982Z,33.23
2019-05-21T17:54:37.440Z,33.17
2019-05-21T17:57:06.247Z,35.10
2019-05-21T17:59:34.730Z,36.00
2019-05-21T18:02:05.134Z,36.00
2019-05-21T18:04:34.170Z,37.03
2019-05-21T18:07:03.284Z,34.73
2019-05-21T18:09:32.980Z,34.73
2019-05-21T18:12:02.195Z,38.37
2019-05-21T18:14:31.083Z,33.83
2019-05-21T18:16:59.986Z,35.77
2019-05-21T18:19:28.776Z,34.17
2019-05-21T18:21:57.240Z,35.60
2019-05-21T18:24:25.695Z,33.33
2019-05-21T18:26:54.187Z,35.67
2019-05-21T18:29:22.884Z,38.07
2019-05-21T18:31:51.483Z,36.93
2019-05-21T18:34:20.007Z,36.40
2019-05-21T18:36:48.619Z,36.53
2019-05-21T18:39:17.541Z,36.53
2019-05-21T18:41:46.010Z,32.27
2019-05-21T18:44:14.482Z,39.80
2019-05-21T18:46:43.089Z,38.73
2019-05-21T18:49:11.624Z,37.07
2019-05-21T18:51:40.172Z,42.60
2019-05-21T18:54:08.743Z,43.47
2019-05-21T18:56:37.190Z,41.27
2019-05-21T18:59:05.889Z,43.83
2019-05-21T19:01:34.520Z,49.13
2019-05-21T19:04:03.138Z,48.90
2019-05-21T19:06:31.629Z,49.37
2019-05-21T19:09:00.169Z,49.77
2019-05-21T19:11:28.711Z,46.60
2019-05-21T19:13:57.226Z,48.93
2019-05-21T19:16:29.365Z,50.00
2019-05-21T19:18:55.855Z,48.60
2019-05-21T19:21:24.355Z,50.17
2019-05-21T19:23:52.895Z,51.73
2019-05-21T19:26:21.440Z,46.53
2019-05-21T19:28:49.959Z,53.47
2019-05-21T19:31:18.433Z,51.60
2019-05-21T19:33:52.789Z,44.77
2019-05-21T19:36:21.441Z,54.63
2019-05-21T19:38:49.887Z,41.13
2019-05-21T19:41:18.370Z,48.53
2019-05-21T19:43:46.904Z,53.10
2019-05-21T19:46:15.414Z,67.23
2019-05-21T19:48:43.869Z,62.23
2019-05-21T19:51:12.367Z,52.37
2019-05-21T19:53:40.852Z,55.87
2019-05-21T19:56:09.519Z,68.97
2019-05-21T19:58:37.970Z,59.80
2019-05-21T20:01:08.051Z,86.10
2019-05-21T20:03:36.545Z,60.07
2019-05-21T20:06:06.075Z,53.20
2019-05-21T20:08:34.904Z,65.00
2019-05-21T20:11:03.833Z,61.93
2019-05-21T20:13:33.046Z,52.50
2019-05-21T20:16:03.703Z,50.10
2019-05-21T20:18:32.494Z,58.07
2019-05-21T20:21:01.981Z,48.67
2019-05-21T20:23:30.599Z,45.50
2019-05-21T20:25:59.426Z,50.70
2019-05-21T20:28:28.326Z,59.57
2019-05-21T20:30:56.859Z,51.77
2019-05-21T20:33:26.277Z,76.33
2019-05-21T20:35:55.385Z,58.57
2019-05-21T20:38:24.245Z,59.90
2019-05-21T20:40:53.245Z,44.53
2019-05-21T20:43:21.825Z,48.50
2019-05-21T20:45:50.543Z,42.00
2019-05-21T20:48:19.256Z,44.33
2019-05-21T20:50:48.170Z,47.27
2019-05-21T20:53:16.851Z,43.20
2019-05-21T20:55:45.434Z,43.40
2019-05-21T20:58:14.143Z,45.53
2019-05-21T21:00:44.773Z,46.43
2019-05-21T21:03:14.664Z,46.37
2019-05-21T21:05:43.908Z,47.00
2019-05-21T21:08:13.699Z,43.17
2019-05-21T21:10:42.321Z,38.23
2019-05-21T21:13:13.242Z,34.00
2019-05-21T21:15:42.078Z,36.80
2019-05-21T21:18:10.760Z,45.97
2019-05-21T21:20:39.605Z,40.80
2019-05-21T21:23:08.126Z,38.90
2019-05-21T21:25:37.020Z,35.30
2019-05-21T21:28:05.623Z,38.57
2019-05-21T21:30:35.742Z,41.50
2019-05-21T21:33:05.336Z,39.50
2019-05-21T21:35:34.589Z,43.07
2019-05-21T21:38:04.671Z,43.27
2019-05-21T21:40:33.271Z,38.80
2019-05-21T21:43:01.803Z,33.70
2019-05-21T21:45:30.475Z,35.67
2019-05-21T21:47:59.085Z,35.83
2019-05-21T21:50:27.978Z,36.70
2019-05-21T21:52:57.018Z,34.50
2019-05-21T21:55:25.607Z,32.57
2019-05-21T21:57:54.078Z,32.67
2019-05-21T22:00:59.448Z,31.07
2019-05-21T22:03:30.616Z,37.50
2019-05-21T22:06:00.984Z,34.80
2019-05-21T22:08:31.381Z,30.67
2019-05-21T22:11:00.429Z,30.73
2019-05-21T22:13:29.165Z,31.60
2019-05-21T22:15:59.691Z,31.30
2019-05-21T22:18:28.223Z,31.90
2019-05-21T22:20:56.710Z,32.97
2019-05-21T22:23:26.176Z,29.10
2019-05-21T22:25:54.651Z,32.97
2019-05-21T22:28:23.133Z,31.10
2019-05-21T22:30:52.046Z,29.20
2019-05-21T22:33:20.894Z,24.33
2019-05-21T22:35:49.424Z,25.40
2019-05-21T22:38:18.223Z,25.40
2019-05-21T22:40:46.673Z,23.13
2019-05-21T22:43:15.210Z,24.00
2019-05-21T22:45:43.646Z,22.33
2019-05-21T22:48:12.296Z,22.83
2019-05-21T22:50:40.815Z,21.80
2019-05-21T22:53:09.347Z,23.93
2019-05-21T22:55:37.861Z,21.37
2019-05-21T22:58:06.587Z,21.70
2019-05-21T23:00:35.455Z,20.90
2019-05-21T23:03:04.462Z,22.00
2019-05-21T23:05:33.065Z,24.60
2019-05-21T23:08:02.754Z,21.13
2019-05-21T23:10:31.442Z,48.90
2019-05-21T23:13:00.714Z,21.03
2019-05-21T23:15:29.270Z,20.20
2019-05-21T23:17:58.010Z,20.10
2019-05-21T23:20:27.711Z,17.93
2019-05-21T23:22:59.277Z,19.27
2019-05-21T23:25:29.769Z,21.10
2019-05-21T23:27:59.103Z,17.53
2019-05-21T23:30:28.078Z,17.40
2019-05-21T23:32:56.606Z,18.60
2019-05-21T23:35:25.788Z,20.03
2019-05-21T23:37:56.465Z,18.47
2019-05-21T23:40:25.774Z,18.97
2019-05-21T23:42:54.993Z,17.17
2019-05-21T23:45:23.651Z,18.20
2019-05-21T23:47:52.568Z,15.73
2019-05-21T23:50:21.203Z,16.20
2019-05-21T23:52:50.423Z,15.90
2019-05-21T23:55:18.956Z,15.60
2019-05-21T23:57:47.395Z,15.57
